sensor_id;sensor_type;location;lat;lon;timestamp;P1;durP1;ratioP1;P2;durP2;ratioP2
42616;SDS011;28250;52.320;0.360;2024-02-28T00:02:18;6.07;;;4.00;;
42616;SDS011;28250;52.320;0.360;2024-02-28T00:04:45;6.78;;;3.97;;
42616;SDS011;28250;52.320;0.360;2024-02-28T00:07:12;6.13;;;4.05;;
42616;SDS011;28250;52.320;0.360;2024-02-28T00:09:38;8.70;;;4.63;;
42616;SDS011;28250;52.320;0.360;2024-02-28T00:12:05;10.48;;;5.03;;
42616;SDS011;28250;52.320;0.360;2024-02-28T00:14:31;11.23;;;5.00;;
42616;SDS011;28250;52.320;0.360;2024-02-28T00:16:58;8.88;;;4.45;;
42616;SDS011;28250;52.320;0.360;2024-02-28T00:19:24;8.25;;;4.47;;
42616;SDS011;28250;52.320;0.360;2024-02-28T00:21:51;8.40;;;4.88;;
42616;SDS011;28250;52.320;0.360;2024-02-28T00:24:17;6.93;;;4.50;;
42616;SDS011;28250;52.320;0.360;2024-02-28T00:26:45;8.82;;;4.85;;
42616;SDS011;28250;52.320;0.360;2024-02-28T00:29:12;8.48;;;4.28;;
42616;SDS011;28250;52.320;0.360;2024-02-28T00:31:38;7.80;;;4.60;;
42616;SDS011;28250;52.320;0.360;2024-02-28T00:34:04;5.70;;;4.22;;
42616;SDS011;28250;52.320;0.360;2024-02-28T00:38:58;6.75;;;4.00;;
42616;SDS011;28250;52.320;0.360;2024-02-28T00:41:24;6.05;;;4.03;;
42616;SDS011;28250;52.320;0.360;2024-02-28T00:43:51;8.27;;;4.68;;
42616;SDS011;28250;52.320;0.360;2024-02-28T00:46:17;8.05;;;4.40;;
42616;SDS011;28250;52.320;0.360;2024-02-28T00:48:46;9.63;;;4.95;;
42616;SDS011;28250;52.320;0.360;2024-02-28T00:51:12;7.63;;;4.57;;
42616;SDS011;28250;52.320;0.360;2024-02-28T00:53:39;9.23;;;4.85;;
42616;SDS011;28250;52.320;0.360;2024-02-28T00:56:07;9.55;;;4.88;;
42616;SDS011;28250;52.320;0.360;2024-02-28T00:58:34;10.00;;;5.28;;
42616;SDS011;28250;52.320;0.360;2024-02-28T01:01:01;12.02;;;5.45;;
42616;SDS011;28250;52.320;0.360;2024-02-28T01:03:27;9.07;;;5.18;;
42616;SDS011;28250;52.320;0.360;2024-02-28T01:05:54;7.78;;;4.75;;
42616;SDS011;28250;52.320;0.360;2024-02-28T01:08:20;7.85;;;5.13;;
42616;SDS011;28250;52.320;0.360;2024-02-28T01:10:46;6.80;;;4.43;;
42616;SDS011;28250;52.320;0.360;2024-02-28T01:13:13;6.20;;;4.40;;
42616;SDS011;28250;52.320;0.360;2024-02-28T01:15:40;6.85;;;4.15;;
42616;SDS011;28250;52.320;0.360;2024-02-28T01:18:08;4.85;;;3.67;;
42616;SDS011;28250;52.320;0.360;2024-02-28T01:20:35;6.82;;;4.25;;
42616;SDS011;28250;52.320;0.360;2024-02-28T01:23:02;7.57;;;4.63;;
42616;SDS011;28250;52.320;0.360;2024-02-28T01:25:29;8.13;;;5.15;;
42616;SDS011;28250;52.320;0.360;2024-02-28T01:27:56;9.67;;;4.67;;
42616;SDS011;28250;52.320;0.360;2024-02-28T01:30:23;9.43;;;4.88;;
42616;SDS011;28250;52.320;0.360;2024-02-28T01:32:50;9.00;;;4.78;;
42616;SDS011;28250;52.320;0.360;2024-02-28T01:35:16;8.40;;;4.20;;
42616;SDS011;28250;52.320;0.360;2024-02-28T01:37:43;7.75;;;4.78;;
42616;SDS011;28250;52.320;0.360;2024-02-28T01:40:09;7.03;;;4.70;;
42616;SDS011;28250;52.320;0.360;2024-02-28T01:42:36;8.57;;;4.40;;
42616;SDS011;28250;52.320;0.360;2024-02-28T01:45:03;6.30;;;4.50;;
42616;SDS011;28250;52.320;0.360;2024-02-28T01:47:29;5.60;;;4.15;;
42616;SDS011;28250;52.320;0.360;2024-02-28T01:49:56;9.93;;;4.30;;
42616;SDS011;28250;52.320;0.360;2024-02-28T01:52:23;6.60;;;4.55;;
42616;SDS011;28250;52.320;0.360;2024-02-28T01:54:49;7.23;;;4.83;;
42616;SDS011;28250;52.320;0.360;2024-02-28T01:57:16;7.97;;;4.63;;
42616;SDS011;28250;52.320;0.360;2024-02-28T01:59:43;4.93;;;3.55;;
42616;SDS011;28250;52.320;0.360;2024-02-28T02:02:10;5.57;;;3.85;;
42616;SDS011;28250;52.320;0.360;2024-02-28T02:04:36;6.55;;;4.25;;
42616;SDS011;28250;52.320;0.360;2024-02-28T02:07:03;7.80;;;4.05;;
42616;SDS011;28250;52.320;0.360;2024-02-28T02:09:33;6.03;;;4.28;;
42616;SDS011;28250;52.320;0.360;2024-02-28T02:12:01;6.38;;;4.72;;
42616;SDS011;28250;52.320;0.360;2024-02-28T02:14:28;6.30;;;4.20;;
42616;SDS011;28250;52.320;0.360;2024-02-28T02:16:54;7.13;;;3.95;;
42616;SDS011;28250;52.320;0.360;2024-02-28T02:19:20;8.38;;;4.45;;
42616;SDS011;28250;52.320;0.360;2024-02-28T02:21:49;5.55;;;4.28;;
42616;SDS011;28250;52.320;0.360;2024-02-28T02:24:18;6.20;;;3.65;;
42616;SDS011;28250;52.320;0.360;2024-02-28T02:26:45;6.55;;;4.03;;
42616;SDS011;28250;52.320;0.360;2024-02-28T02:29:12;5.80;;;4.20;;
42616;SDS011;28250;52.320;0.360;2024-02-28T02:31:39;7.65;;;4.85;;
42616;SDS011;28250;52.320;0.360;2024-02-28T02:34:06;6.93;;;4.03;;
42616;SDS011;28250;52.320;0.360;2024-02-28T02:36:32;9.70;;;4.63;;
42616;SDS011;28250;52.320;0.360;2024-02-28T02:38:59;10.80;;;4.63;;
42616;SDS011;28250;52.320;0.360;2024-02-28T02:41:25;7.63;;;4.68;;
42616;SDS011;28250;52.320;0.360;2024-02-28T02:43:52;9.20;;;4.63;;
42616;SDS011;28250;52.320;0.360;2024-02-28T02:46:18;8.40;;;4.80;;
42616;SDS011;28250;52.320;0.360;2024-02-28T02:48:45;8.32;;;4.70;;
42616;SDS011;28250;52.320;0.360;2024-02-28T02:51:11;10.48;;;5.10;;
42616;SDS011;28250;52.320;0.360;2024-02-28T02:53:37;9.20;;;5.35;;
42616;SDS011;28250;52.320;0.360;2024-02-28T02:56:04;8.80;;;4.97;;
42616;SDS011;28250;52.320;0.360;2024-02-28T02:58:31;12.50;;;5.50;;
42616;SDS011;28250;52.320;0.360;2024-02-28T03:00:57;8.90;;;5.28;;
42616;SDS011;28250;52.320;0.360;2024-02-28T03:03:24;7.95;;;5.60;;
42616;SDS011;28250;52.320;0.360;2024-02-28T03:05:50;9.02;;;5.15;;
42616;SDS011;28250;52.320;0.360;2024-02-28T03:08:16;10.87;;;5.47;;
42616;SDS011;28250;52.320;0.360;2024-02-28T03:10:43;7.35;;;4.95;;
42616;SDS011;28250;52.320;0.360;2024-02-28T03:13:09;8.65;;;5.20;;
42616;SDS011;28250;52.320;0.360;2024-02-28T03:15:35;8.63;;;5.35;;
42616;SDS011;28250;52.320;0.360;2024-02-28T03:18:02;10.10;;;4.95;;
42616;SDS011;28250;52.320;0.360;2024-02-28T03:20:29;10.52;;;5.40;;
42616;SDS011;28250;52.320;0.360;2024-02-28T03:22:55;8.95;;;4.85;;
42616;SDS011;28250;52.320;0.360;2024-02-28T03:25:21;9.77;;;5.15;;
42616;SDS011;28250;52.320;0.360;2024-02-28T03:27:48;8.38;;;5.10;;
42616;SDS011;28250;52.320;0.360;2024-02-28T03:30:14;7.47;;;5.10;;
42616;SDS011;28250;52.320;0.360;2024-02-28T03:32:41;8.10;;;4.95;;
42616;SDS011;28250;52.320;0.360;2024-02-28T03:35:26;7.57;;;4.88;;
42616;SDS011;28250;52.320;0.360;2024-02-28T03:37:52;10.07;;;5.47;;
42616;SDS011;28250;52.320;0.360;2024-02-28T03:40:19;10.02;;;6.00;;
42616;SDS011;28250;52.320;0.360;2024-02-28T03:42:45;10.88;;;5.88;;
42616;SDS011;28250;52.320;0.360;2024-02-28T03:45:11;11.43;;;5.63;;
42616;SDS011;28250;52.320;0.360;2024-02-28T03:47:38;8.30;;;5.40;;
42616;SDS011;28250;52.320;0.360;2024-02-28T03:50:04;11.15;;;5.57;;
42616;SDS011;28250;52.320;0.360;2024-02-28T03:52:31;8.82;;;5.50;;
42616;SDS011;28250;52.320;0.360;2024-02-28T03:54:57;12.95;;;6.00;;
42616;SDS011;28250;52.320;0.360;2024-02-28T03:57:24;14.60;;;6.55;;
42616;SDS011;28250;52.320;0.360;2024-02-28T03:59:50;13.60;;;6.07;;
42616;SDS011;28250;52.320;0.360;2024-02-28T04:02:17;11.93;;;6.05;;
42616;SDS011;28250;52.320;0.360;2024-02-28T04:04:43;9.32;;;5.00;;
42616;SDS011;28250;52.320;0.360;2024-02-28T04:07:09;9.60;;;5.43;;
42616;SDS011;28250;52.320;0.360;2024-02-28T04:09:36;11.13;;;6.37;;
42616;SDS011;28250;52.320;0.360;2024-02-28T04:12:02;11.45;;;6.10;;
42616;SDS011;28250;52.320;0.360;2024-02-28T04:14:28;8.95;;;6.13;;
42616;SDS011;28250;52.320;0.360;2024-02-28T04:16:54;11.20;;;5.50;;
42616;SDS011;28250;52.320;0.360;2024-02-28T04:19:21;10.45;;;5.45;;
42616;SDS011;28250;52.320;0.360;2024-02-28T04:21:47;11.85;;;5.97;;
42616;SDS011;28250;52.320;0.360;2024-02-28T04:24:13;10.32;;;6.18;;
42616;SDS011;28250;52.320;0.360;2024-02-28T04:26:39;14.23;;;6.75;;
42616;SDS011;28250;52.320;0.360;2024-02-28T04:29:06;14.60;;;6.53;;
42616;SDS011;28250;52.320;0.360;2024-02-28T04:31:39;12.18;;;6.70;;
42616;SDS011;28250;52.320;0.360;2024-02-28T04:34:05;14.00;;;6.00;;
42616;SDS011;28250;52.320;0.360;2024-02-28T04:36:32;12.10;;;6.47;;
42616;SDS011;28250;52.320;0.360;2024-02-28T04:38:58;13.00;;;7.10;;
42616;SDS011;28250;52.320;0.360;2024-02-28T04:41:27;12.73;;;6.70;;
42616;SDS011;28250;52.320;0.360;2024-02-28T04:43:53;11.65;;;6.97;;
42616;SDS011;28250;52.320;0.360;2024-02-28T04:46:20;14.82;;;6.60;;
42616;SDS011;28250;52.320;0.360;2024-02-28T04:48:46;13.57;;;6.78;;
42616;SDS011;28250;52.320;0.360;2024-02-28T04:51:15;14.57;;;6.47;;
42616;SDS011;28250;52.320;0.360;2024-02-28T04:53:43;12.45;;;6.70;;
42616;SDS011;28250;52.320;0.360;2024-02-28T04:56:09;19.40;;;8.43;;
42616;SDS011;28250;52.320;0.360;2024-02-28T04:58:36;11.75;;;6.85;;
42616;SDS011;28250;52.320;0.360;2024-02-28T05:01:02;14.15;;;6.97;;
42616;SDS011;28250;52.320;0.360;2024-02-28T05:03:29;12.95;;;7.15;;
42616;SDS011;28250;52.320;0.360;2024-02-28T05:05:55;10.98;;;6.80;;
42616;SDS011;28250;52.320;0.360;2024-02-28T05:08:21;16.23;;;7.65;;
42616;SDS011;28250;52.320;0.360;2024-02-28T05:10:51;14.50;;;7.32;;
42616;SDS011;28250;52.320;0.360;2024-02-28T05:13:17;15.30;;;7.32;;
42616;SDS011;28250;52.320;0.360;2024-02-28T05:15:44;12.93;;;6.45;;
42616;SDS011;28250;52.320;0.360;2024-02-28T05:18:10;14.38;;;7.40;;
42616;SDS011;28250;52.320;0.360;2024-02-28T05:20:36;16.05;;;7.50;;
42616;SDS011;28250;52.320;0.360;2024-02-28T05:23:03;15.10;;;7.47;;
42616;SDS011;28250;52.320;0.360;2024-02-28T05:25:29;16.95;;;8.00;;
42616;SDS011;28250;52.320;0.360;2024-02-28T05:27:55;13.15;;;7.18;;
42616;SDS011;28250;52.320;0.360;2024-02-28T05:30:22;13.70;;;6.57;;
42616;SDS011;28250;52.320;0.360;2024-02-28T05:32:48;14.80;;;7.43;;
42616;SDS011;28250;52.320;0.360;2024-02-28T05:35:14;18.52;;;8.27;;
42616;SDS011;28250;52.320;0.360;2024-02-28T05:37:40;17.67;;;7.85;;
42616;SDS011;28250;52.320;0.360;2024-02-28T05:40:07;20.02;;;8.40;;
42616;SDS011;28250;52.320;0.360;2024-02-28T05:42:34;16.45;;;8.05;;
42616;SDS011;28250;52.320;0.360;2024-02-28T05:45:01;20.02;;;9.30;;
42616;SDS011;28250;52.320;0.360;2024-02-28T05:47:28;19.63;;;10.50;;
42616;SDS011;28250;52.320;0.360;2024-02-28T05:49:55;19.83;;;8.20;;
42616;SDS011;28250;52.320;0.360;2024-02-28T05:52:23;21.33;;;10.30;;
42616;SDS011;28250;52.320;0.360;2024-02-28T05:54:51;19.92;;;9.82;;
42616;SDS011;28250;52.320;0.360;2024-02-28T05:57:17;19.73;;;9.68;;
42616;SDS011;28250;52.320;0.360;2024-02-28T05:59:43;23.65;;;9.30;;
42616;SDS011;28250;52.320;0.360;2024-02-28T06:02:10;21.63;;;9.27;;
42616;SDS011;28250;52.320;0.360;2024-02-28T06:04:36;24.08;;;9.98;;
42616;SDS011;28250;52.320;0.360;2024-02-28T06:07:02;22.17;;;9.77;;
42616;SDS011;28250;52.320;0.360;2024-02-28T06:09:29;24.47;;;10.10;;
42616;SDS011;28250;52.320;0.360;2024-02-28T06:11:55;19.50;;;9.38;;
42616;SDS011;28250;52.320;0.360;2024-02-28T06:14:22;23.38;;;9.48;;
42616;SDS011;28250;52.320;0.360;2024-02-28T06:16:48;24.13;;;9.55;;
42616;SDS011;28250;52.320;0.360;2024-02-28T06:19:14;24.45;;;8.95;;
42616;SDS011;28250;52.320;0.360;2024-02-28T06:21:41;22.90;;;9.10;;
42616;SDS011;28250;52.320;0.360;2024-02-28T06:24:07;19.52;;;8.73;;
42616;SDS011;28250;52.320;0.360;2024-02-28T06:26:33;26.65;;;8.57;;
42616;SDS011;28250;52.320;0.360;2024-02-28T06:29:00;23.27;;;9.00;;
42616;SDS011;28250;52.320;0.360;2024-02-28T06:31:29;22.52;;;8.98;;
42616;SDS011;28250;52.320;0.360;2024-02-28T06:33:56;28.00;;;8.82;;
42616;SDS011;28250;52.320;0.360;2024-02-28T06:36:23;21.10;;;8.98;;
42616;SDS011;28250;52.320;0.360;2024-02-28T06:38:49;18.48;;;8.45;;
42616;SDS011;28250;52.320;0.360;2024-02-28T06:41:16;17.43;;;8.23;;
42616;SDS011;28250;52.320;0.360;2024-02-28T06:43:42;16.70;;;7.82;;
42616;SDS011;28250;52.320;0.360;2024-02-28T06:46:08;17.70;;;8.10;;
42616;SDS011;28250;52.320;0.360;2024-02-28T06:48:35;23.33;;;8.82;;
42616;SDS011;28250;52.320;0.360;2024-02-28T06:51:01;17.65;;;7.75;;
42616;SDS011;28250;52.320;0.360;2024-02-28T06:53:27;17.85;;;7.30;;
42616;SDS011;28250;52.320;0.360;2024-02-28T06:55:55;18.33;;;7.65;;
42616;SDS011;28250;52.320;0.360;2024-02-28T06:58:21;17.25;;;7.53;;
42616;SDS011;28250;52.320;0.360;2024-02-28T07:00:50;19.30;;;7.82;;
42616;SDS011;28250;52.320;0.360;2024-02-28T07:03:16;18.23;;;8.75;;
42616;SDS011;28250;52.320;0.360;2024-02-28T07:05:43;18.92;;;7.03;;
42616;SDS011;28250;52.320;0.360;2024-02-28T07:08:09;17.15;;;8.43;;
42616;SDS011;28250;52.320;0.360;2024-02-28T07:13:04;14.98;;;7.60;;
42616;SDS011;28250;52.320;0.360;2024-02-28T07:15:30;17.50;;;7.70;;
42616;SDS011;28250;52.320;0.360;2024-02-28T07:17:56;19.30;;;8.85;;
42616;SDS011;28250;52.320;0.360;2024-02-28T07:20:22;19.80;;;8.60;;
42616;SDS011;28250;52.320;0.360;2024-02-28T07:22:49;20.85;;;9.40;;
42616;SDS011;28250;52.320;0.360;2024-02-28T07:25:16;24.45;;;10.13;;
42616;SDS011;28250;52.320;0.360;2024-02-28T07:27:42;20.67;;;8.82;;
42616;SDS011;28250;52.320;0.360;2024-02-28T07:30:08;22.70;;;9.80;;
42616;SDS011;28250;52.320;0.360;2024-02-28T07:32:35;24.55;;;9.50;;
42616;SDS011;28250;52.320;0.360;2024-02-28T07:35:02;21.85;;;9.70;;
42616;SDS011;28250;52.320;0.360;2024-02-28T07:37:29;26.08;;;10.00;;
42616;SDS011;28250;52.320;0.360;2024-02-28T07:39:55;22.23;;;10.20;;
42616;SDS011;28250;52.320;0.360;2024-02-28T07:42:21;22.30;;;9.70;;
42616;SDS011;28250;52.320;0.360;2024-02-28T07:44:47;25.30;;;10.63;;
42616;SDS011;28250;52.320;0.360;2024-02-28T07:47:19;22.90;;;9.30;;
42616;SDS011;28250;52.320;0.360;2024-02-28T07:49:45;20.02;;;8.68;;
42616;SDS011;28250;52.320;0.360;2024-02-28T07:52:11;22.45;;;10.25;;
42616;SDS011;28250;52.320;0.360;2024-02-28T07:54:38;21.10;;;9.60;;
42616;SDS011;28250;52.320;0.360;2024-02-28T07:57:07;23.65;;;9.63;;
42616;SDS011;28250;52.320;0.360;2024-02-28T07:59:42;24.77;;;9.63;;
42616;SDS011;28250;52.320;0.360;2024-02-28T08:02:09;20.30;;;8.82;;
42616;SDS011;28250;52.320;0.360;2024-02-28T08:04:37;19.90;;;8.82;;
42616;SDS011;28250;52.320;0.360;2024-02-28T08:07:03;21.27;;;9.73;;
42616;SDS011;28250;52.320;0.360;2024-02-28T08:09:30;22.77;;;10.10;;
42616;SDS011;28250;52.320;0.360;2024-02-28T08:11:56;23.33;;;8.85;;
42616;SDS011;28250;52.320;0.360;2024-02-28T08:14:24;18.23;;;8.20;;
42616;SDS011;28250;52.320;0.360;2024-02-28T08:16:50;23.70;;;10.07;;
42616;SDS011;28250;52.320;0.360;2024-02-28T08:19:17;21.38;;;9.98;;
42616;SDS011;28250;52.320;0.360;2024-02-28T08:21:43;24.52;;;9.70;;
42616;SDS011;28250;52.320;0.360;2024-02-28T08:24:09;18.83;;;8.80;;
42616;SDS011;28250;52.320;0.360;2024-02-28T08:26:36;23.67;;;9.23;;
42616;SDS011;28250;52.320;0.360;2024-02-28T08:29:02;18.95;;;8.65;;
42616;SDS011;28250;52.320;0.360;2024-02-28T08:31:28;19.23;;;9.13;;
42616;SDS011;28250;52.320;0.360;2024-02-28T08:33:54;21.05;;;9.40;;
42616;SDS011;28250;52.320;0.360;2024-02-28T08:36:21;21.38;;;8.60;;
42616;SDS011;28250;52.320;0.360;2024-02-28T08:38:47;16.35;;;7.20;;
42616;SDS011;28250;52.320;0.360;2024-02-28T08:41:13;15.27;;;7.72;;
42616;SDS011;28250;52.320;0.360;2024-02-28T08:43:40;18.80;;;8.20;;
42616;SDS011;28250;52.320;0.360;2024-02-28T08:46:06;17.07;;;8.10;;
42616;SDS011;28250;52.320;0.360;2024-02-28T08:48:33;17.00;;;7.40;;
42616;SDS011;28250;52.320;0.360;2024-02-28T08:50:59;19.80;;;7.75;;
42616;SDS011;28250;52.320;0.360;2024-02-28T08:53:26;21.50;;;8.13;;
42616;SDS011;28250;52.320;0.360;2024-02-28T08:55:54;16.30;;;6.63;;
42616;SDS011;28250;52.320;0.360;2024-02-28T08:58:20;15.82;;;6.95;;
42616;SDS011;28250;52.320;0.360;2024-02-28T09:00:46;17.30;;;7.07;;
42616;SDS011;28250;52.320;0.360;2024-02-28T09:03:12;16.30;;;5.95;;
42616;SDS011;28250;52.320;0.360;2024-02-28T09:05:39;16.20;;;6.45;;
42616;SDS011;28250;52.320;0.360;2024-02-28T09:08:05;14.23;;;5.60;;
42616;SDS011;28250;52.320;0.360;2024-02-28T09:10:31;15.90;;;6.47;;
42616;SDS011;28250;52.320;0.360;2024-02-28T09:12:59;12.50;;;5.32;;
42616;SDS011;28250;52.320;0.360;2024-02-28T09:15:26;16.43;;;6.53;;
42616;SDS011;28250;52.320;0.360;2024-02-28T09:17:52;13.32;;;5.35;;
42616;SDS011;28250;52.320;0.360;2024-02-28T09:20:18;17.58;;;6.10;;
42616;SDS011;28250;52.320;0.360;2024-02-28T09:22:44;16.23;;;6.78;;
42616;SDS011;28250;52.320;0.360;2024-02-28T09:25:11;13.52;;;5.32;;
42616;SDS011;28250;52.320;0.360;2024-02-28T09:27:37;17.58;;;6.53;;
42616;SDS011;28250;52.320;0.360;2024-02-28T09:30:04;16.30;;;5.85;;
42616;SDS011;28250;52.320;0.360;2024-02-28T09:32:31;11.68;;;5.60;;
42616;SDS011;28250;52.320;0.360;2024-02-28T09:34:57;14.48;;;6.18;;
42616;SDS011;28250;52.320;0.360;2024-02-28T09:37:23;12.73;;;5.80;;
42616;SDS011;28250;52.320;0.360;2024-02-28T09:39:50;19.88;;;7.00;;
42616;SDS011;28250;52.320;0.360;2024-02-28T09:42:16;11.40;;;5.50;;
42616;SDS011;28250;52.320;0.360;2024-02-28T09:44:43;14.37;;;5.97;;
42616;SDS011;28250;52.320;0.360;2024-02-28T09:47:10;12.70;;;6.47;;
42616;SDS011;28250;52.320;0.360;2024-02-28T09:49:36;14.90;;;5.85;;
42616;SDS011;28250;52.320;0.360;2024-02-28T09:52:03;12.57;;;5.88;;
42616;SDS011;28250;52.320;0.360;2024-02-28T09:54:30;12.85;;;5.57;;
42616;SDS011;28250;52.320;0.360;2024-02-28T09:56:56;12.40;;;5.38;;
42616;SDS011;28250;52.320;0.360;2024-02-28T09:59:23;11.30;;;5.22;;
42616;SDS011;28250;52.320;0.360;2024-02-28T10:01:56;11.18;;;5.22;;
42616;SDS011;28250;52.320;0.360;2024-02-28T10:04:24;16.83;;;5.68;;
42616;SDS011;28250;52.320;0.360;2024-02-28T10:06:53;10.00;;;5.03;;
42616;SDS011;28250;52.320;0.360;2024-02-28T10:09:19;10.02;;;5.30;;
42616;SDS011;28250;52.320;0.360;2024-02-28T10:11:45;10.20;;;4.85;;
42616;SDS011;28250;52.320;0.360;2024-02-28T10:14:16;10.73;;;5.68;;
42616;SDS011;28250;52.320;0.360;2024-02-28T10:16:45;14.27;;;5.03;;
42616;SDS011;28250;52.320;0.360;2024-02-28T10:19:11;11.23;;;5.53;;
42616;SDS011;28250;52.320;0.360;2024-02-28T10:21:38;11.10;;;5.13;;
42616;SDS011;28250;52.320;0.360;2024-02-28T10:24:04;12.50;;;5.35;;
42616;SDS011;28250;52.320;0.360;2024-02-28T10:26:31;16.20;;;6.10;;
42616;SDS011;28250;52.320;0.360;2024-02-28T10:29:03;14.65;;;6.00;;
42616;SDS011;28250;52.320;0.360;2024-02-28T10:31:32;13.27;;;6.10;;
42616;SDS011;28250;52.320;0.360;2024-02-28T10:33:59;13.00;;;6.47;;
42616;SDS011;28250;52.320;0.360;2024-02-28T10:36:30;14.88;;;5.93;;
42616;SDS011;28250;52.320;0.360;2024-02-28T10:38:58;14.00;;;6.18;;
42616;SDS011;28250;52.320;0.360;2024-02-28T10:41:26;15.20;;;6.53;;
42616;SDS011;28250;52.320;0.360;2024-02-28T10:43:53;15.45;;;6.78;;
42616;SDS011;28250;52.320;0.360;2024-02-28T10:46:20;12.45;;;6.03;;
42616;SDS011;28250;52.320;0.360;2024-02-28T10:48:49;14.75;;;6.75;;
42616;SDS011;28250;52.320;0.360;2024-02-28T10:51:19;13.98;;;6.60;;
42616;SDS011;28250;52.320;0.360;2024-02-28T10:53:56;12.38;;;6.05;;
42616;SDS011;28250;52.320;0.360;2024-02-28T10:56:40;16.35;;;7.50;;
42616;SDS011;28250;52.320;0.360;2024-02-28T10:59:09;14.00;;;6.10;;
42616;SDS011;28250;52.320;0.360;2024-02-28T11:01:38;17.33;;;7.45;;
42616;SDS011;28250;52.320;0.360;2024-02-28T11:04:08;16.25;;;6.93;;
42616;SDS011;28250;52.320;0.360;2024-02-28T11:06:46;18.42;;;7.10;;
42616;SDS011;28250;52.320;0.360;2024-02-28T11:09:19;16.60;;;7.35;;
42616;SDS011;28250;52.320;0.360;2024-02-28T11:11:52;15.80;;;6.68;;
42616;SDS011;28250;52.320;0.360;2024-02-28T11:14:21;15.15;;;7.32;;
42616;SDS011;28250;52.320;0.360;2024-02-28T11:17:00;16.67;;;8.02;;
42616;SDS011;28250;52.320;0.360;2024-02-28T11:19:29;18.73;;;7.55;;
42616;SDS011;28250;52.320;0.360;2024-02-28T11:21:59;16.35;;;6.90;;
42616;SDS011;28250;52.320;0.360;2024-02-28T11:24:30;17.88;;;7.55;;
42616;SDS011;28250;52.320;0.360;2024-02-28T11:26:59;16.00;;;6.47;;
42616;SDS011;28250;52.320;0.360;2024-02-28T11:29:25;16.75;;;7.10;;
42616;SDS011;28250;52.320;0.360;2024-02-28T11:31:55;14.30;;;5.75;;
42616;SDS011;28250;52.320;0.360;2024-02-28T11:34:21;14.60;;;6.40;;
42616;SDS011;28250;52.320;0.360;2024-02-28T11:36:48;11.17;;;5.27;;
42616;SDS011;28250;52.320;0.360;2024-02-28T11:39:16;13.23;;;5.72;;
42616;SDS011;28250;52.320;0.360;2024-02-28T11:41:43;13.32;;;5.03;;
42616;SDS011;28250;52.320;0.360;2024-02-28T11:44:12;8.85;;;4.65;;
42616;SDS011;28250;52.320;0.360;2024-02-28T11:46:46;13.48;;;5.25;;
42616;SDS011;28250;52.320;0.360;2024-02-28T11:49:14;11.52;;;4.72;;
42616;SDS011;28250;52.320;0.360;2024-02-28T11:51:41;12.65;;;5.40;;
42616;SDS011;28250;52.320;0.360;2024-02-28T11:54:10;13.82;;;5.32;;
42616;SDS011;28250;52.320;0.360;2024-02-28T11:56:40;8.18;;;4.47;;
42616;SDS011;28250;52.320;0.360;2024-02-28T11:59:08;9.43;;;4.40;;
42616;SDS011;28250;52.320;0.360;2024-02-28T12:01:38;11.15;;;5.32;;
42616;SDS011;28250;52.320;0.360;2024-02-28T12:04:09;11.80;;;6.03;;
42616;SDS011;28250;52.320;0.360;2024-02-28T12:06:37;9.43;;;4.85;;
42616;SDS011;28250;52.320;0.360;2024-02-28T12:09:04;11.60;;;5.47;;
42616;SDS011;28250;52.320;0.360;2024-02-28T12:11:37;11.65;;;5.13;;
42616;SDS011;28250;52.320;0.360;2024-02-28T12:14:04;12.48;;;5.65;;
42616;SDS011;28250;52.320;0.360;2024-02-28T12:16:35;13.77;;;6.32;;
42616;SDS011;28250;52.320;0.360;2024-02-28T12:19:04;11.70;;;6.10;;
42616;SDS011;28250;52.320;0.360;2024-02-28T12:21:33;12.10;;;6.13;;
42616;SDS011;28250;52.320;0.360;2024-02-28T12:23:59;12.48;;;6.15;;
42616;SDS011;28250;52.320;0.360;2024-02-28T12:26:26;11.02;;;6.60;;
42616;SDS011;28250;52.320;0.360;2024-02-28T12:28:53;12.45;;;6.55;;
42616;SDS011;28250;52.320;0.360;2024-02-28T12:31:19;17.00;;;6.32;;
42616;SDS011;28250;52.320;0.360;2024-02-28T12:36:13;13.05;;;6.20;;
42616;SDS011;28250;52.320;0.360;2024-02-28T12:38:39;10.98;;;6.05;;
42616;SDS011;28250;52.320;0.360;2024-02-28T12:41:06;10.32;;;5.85;;
42616;SDS011;28250;52.320;0.360;2024-02-28T12:43:33;13.50;;;6.63;;
42616;SDS011;28250;52.320;0.360;2024-02-28T12:45:59;12.13;;;5.90;;
42616;SDS011;28250;52.320;0.360;2024-02-28T12:48:26;12.48;;;5.28;;
42616;SDS011;28250;52.320;0.360;2024-02-28T12:50:52;16.10;;;5.85;;
42616;SDS011;28250;52.320;0.360;2024-02-28T12:53:18;11.45;;;5.68;;
42616;SDS011;28250;52.320;0.360;2024-02-28T12:55:44;12.48;;;5.60;;
42616;SDS011;28250;52.320;0.360;2024-02-28T12:58:10;11.23;;;5.53;;
42616;SDS011;28250;52.320;0.360;2024-02-28T13:00:37;13.23;;;5.00;;
42616;SDS011;28250;52.320;0.360;2024-02-28T13:03:03;10.15;;;5.00;;
42616;SDS011;28250;52.320;0.360;2024-02-28T13:05:31;8.82;;;4.85;;
42616;SDS011;28250;52.320;0.360;2024-02-28T13:07:57;12.23;;;4.30;;
42616;SDS011;28250;52.320;0.360;2024-02-28T13:10:24;9.43;;;4.30;;
42616;SDS011;28250;52.320;0.360;2024-02-28T13:12:51;6.85;;;3.42;;
42616;SDS011;28250;52.320;0.360;2024-02-28T13:15:18;8.17;;;3.63;;
42616;SDS011;28250;52.320;0.360;2024-02-28T13:17:44;8.02;;;3.38;;
42616;SDS011;28250;52.320;0.360;2024-02-28T13:20:14;10.32;;;4.00;;
42616;SDS011;28250;52.320;0.360;2024-02-28T13:22:41;11.07;;;3.03;;
42616;SDS011;28250;52.320;0.360;2024-02-28T13:25:08;11.07;;;3.88;;
42616;SDS011;28250;52.320;0.360;2024-02-28T13:27:35;7.90;;;3.53;;
42616;SDS011;28250;52.320;0.360;2024-02-28T13:30:03;5.45;;;2.78;;
42616;SDS011;28250;52.320;0.360;2024-02-28T13:32:30;7.70;;;2.88;;
42616;SDS011;28250;52.320;0.360;2024-02-28T13:34:57;11.80;;;3.03;;
42616;SDS011;28250;52.320;0.360;2024-02-28T13:37:23;8.93;;;3.00;;
42616;SDS011;28250;52.320;0.360;2024-02-28T13:39:50;8.90;;;2.70;;
42616;SDS011;28250;52.320;0.360;2024-02-28T13:42:17;7.97;;;2.67;;
42616;SDS011;28250;52.320;0.360;2024-02-28T13:44:49;9.25;;;2.50;;
42616;SDS011;28250;52.320;0.360;2024-02-28T13:47:16;6.72;;;2.80;;
42616;SDS011;28250;52.320;0.360;2024-02-28T13:49:43;10.00;;;2.35;;
42616;SDS011;28250;52.320;0.360;2024-02-28T13:52:09;11.43;;;2.58;;
42616;SDS011;28250;52.320;0.360;2024-02-28T13:54:35;11.85;;;2.58;;
42616;SDS011;28250;52.320;0.360;2024-02-28T13:57:02;7.10;;;2.53;;
42616;SDS011;28250;52.320;0.360;2024-02-28T13:59:30;9.68;;;2.60;;
42616;SDS011;28250;52.320;0.360;2024-02-28T14:01:56;8.70;;;2.50;;
42616;SDS011;28250;52.320;0.360;2024-02-28T14:04:26;10.30;;;2.03;;
42616;SDS011;28250;52.320;0.360;2024-02-28T14:06:52;8.50;;;2.47;;
42616;SDS011;28250;52.320;0.360;2024-02-28T14:09:18;14.05;;;2.25;;
42616;SDS011;28250;52.320;0.360;2024-02-28T14:11:44;6.32;;;2.22;;
42616;SDS011;28250;52.320;0.360;2024-02-28T14:14:11;12.10;;;3.20;;
42616;SDS011;28250;52.320;0.360;2024-02-28T14:16:38;7.60;;;2.67;;
42616;SDS011;28250;52.320;0.360;2024-02-28T14:19:04;8.50;;;1.98;;
42616;SDS011;28250;52.320;0.360;2024-02-28T14:21:30;7.68;;;2.28;;
42616;SDS011;28250;52.320;0.360;2024-02-28T14:23:57;6.43;;;1.80;;
42616;SDS011;28250;52.320;0.360;2024-02-28T14:26:23;11.60;;;2.50;;
42616;SDS011;28250;52.320;0.360;2024-02-28T14:28:49;11.68;;;2.55;;
42616;SDS011;28250;52.320;0.360;2024-02-28T14:31:16;7.20;;;1.70;;
42616;SDS011;28250;52.320;0.360;2024-02-28T14:33:42;8.15;;;1.85;;
42616;SDS011;28250;52.320;0.360;2024-02-28T14:36:08;8.20;;;2.30;;
42616;SDS011;28250;52.320;0.360;2024-02-28T14:38:34;9.40;;;1.73;;
42616;SDS011;28250;52.320;0.360;2024-02-28T14:41:01;7.07;;;1.83;;
42616;SDS011;28250;52.320;0.360;2024-02-28T14:43:28;8.23;;;1.77;;
42616;SDS011;28250;52.320;0.360;2024-02-28T14:45:55;7.72;;;2.08;;